Time;durP1;ratioP1;P1;durP2;ratioP2;P2;SDS_P1;SDS_P2;PMS_P1;PMS_P2;Temp;Humidity;BMP_temperature;BMP_pressure;BME280_temperature;BME280_humidity;BME280_pressure;Samples;Min_cycle;Max_cycle;Signal;HPM_P1;HPM_P2
2022/01/31 00:01:51;;;;;;;385.55;130.82;;;-0.40;99.90;;;;;;5114723;28;20495;-51
2022/01/31 00:04:16;;;;;;;361.30;129.18;;;-0.40;99.90;;;;;;5114660;28;20473;-51
2022/01/31 00:06:48;;;;;;;370.70;123.38;;;-0.40;99.90;;;;;;5114485;28;20020;-51
2022/01/31 00:09:18;;;;;;;424.98;137.48;;;-0.40;99.90;;;;;;5114832;28;20091;-51
2022/01/31 00:11:54;;;;;;;439.98;132.40;;;-0.40;99.90;;;;;;5114621;28;20114;-51
2022/01/31 00:16:58;;;;;;;390.20;122.35;;;-0.60;99.90;;;;;;5114647;28;20024;-51
2022/01/31 00:19:24;;;;;;;305.55;98.40;;;-0.60;99.90;;;;;;5118329;28;20028;-51
2022/01/31 00:21:50;;;;;;;1182.38;370.85;;;-0.50;99.90;;;;;;5118562;28;20120;-51
2022/01/31 00:24:16;;;;;;;1133.65;353.77;;;-0.50;99.90;;;;;;5118348;28;20083;-51
2022/01/31 00:26:41;;;;;;;1722.68;539.33;;;-0.40;99.90;;;;;;5118522;28;20019;-51
2022/01/31 00:29:07;;;;;;;1623.38;511.85;;;-0.40;99.90;;;;;;5118249;28;20553;-51
2022/01/31 00:31:33;;;;;;;754.00;231.23;;;-0.50;99.90;;;;;;5116722;28;20051;-51
2022/01/31 00:33:59;;;;;;;711.72;209.13;;;-0.60;99.90;;;;;;5118302;28;20028;-51
2022/01/31 00:36:27;;;;;;;880.63;276.10;;;-0.50;99.90;;;;;;5118235;28;20096;-51
2022/01/31 00:38:53;;;;;;;968.40;323.17;;;-0.60;99.90;;;;;;5118102;28;20027;-51
2022/01/31 00:41:19;;;;;;;1018.33;330.40;;;-0.50;99.90;;;;;;5118269;28;20039;-51
2022/01/31 00:43:56;;;;;;;872.85;284.95;;;-0.50;99.90;;;;;;5117986;28;20491;-51
2022/01/31 00:46:28;;;;;;;705.88;219.35;;;-0.50;99.90;;;;;;5117962;28;20380;-51
2022/01/31 00:48:54;;;;;;;601.97;171.48;;;-0.60;99.90;;;;;;5117998;28;20525;-51
2022/01/31 00:51:20;;;;;;;497.95;139.43;;;-0.60;99.90;;;;;;5116403;28;20118;-51
2022/01/31 00:53:46;;;;;;;296.55;82.53;;;-0.60;99.90;;;;;;5116363;28;20024;-51
2022/01/31 00:56:12;;;;;;;285.85;75.82;;;-0.60;99.90;;;;;;5118097;28;20035;-51
2022/01/31 00:58:37;;;;;;;504.77;137.80;;;-0.70;99.90;;;;;;5116299;28;20039;-51
2022/01/31 01:01:03;;;;;;;698.95;221.52;;;-0.70;99.90;;;;;;5117608;28;20031;-51
2022/01/31 01:03:29;;;;;;;656.08;194.93;;;-0.80;99.90;;;;;;5117779;28;20035;-51
2022/01/31 01:05:56;;;;;;;654.28;197.82;;;-0.90;99.90;;;;;;5117446;28;20102;-51
2022/01/31 01:08:21;;;;;;;576.88;166.15;;;-0.90;99.90;;;;;;5116281;28;20034;-51
2022/01/31 01:10:47;;;;;;;603.28;173.50;;;-1.00;99.90;;;;;;5117618;28;20027;-51
2022/01/31 01:13:15;;;;;;;531.95;143.35;;;-1.00;99.90;;;;;;5117640;28;20496;-51
2022/01/31 01:15:41;;;;;;;429.92;116.88;;;-1.00;99.90;;;;;;5116287;28;20034;-51
2022/01/31 01:18:07;;;;;;;343.48;100.38;;;-0.90;99.90;;;;;;5115988;28;20042;-51
2022/01/31 01:20:34;;;;;;;280.77;81.05;;;-1.00;99.90;;;;;;5116069;28;20035;-51
2022/01/31 01:23:01;;;;;;;186.57;54.03;;;-1.10;99.90;;;;;;5115999;28;20057;-51
2022/01/31 01:25:27;;;;;;;209.25;60.22;;;-1.20;99.90;;;;;;5117251;28;20480;-51
2022/01/31 01:27:54;;;;;;;283.08;80.72;;;-1.30;99.90;;;;;;5115836;28;20523;-51
2022/01/31 01:30:21;;;;;;;293.13;90.25;;;-1.30;99.90;;;;;;5115406;28;20044;-51
2022/01/31 01:35:17;;;;;;;313.02;98.22;;;-1.30;99.90;;;;;;5115904;28;20035;-51
2022/01/31 01:37:43;;;;;;;429.20;135.75;;;-1.20;99.90;;;;;;5117191;28;20108;-51
2022/01/31 01:40:09;;;;;;;536.50;172.45;;;-1.20;99.90;;;;;;5116901;28;20396;-51
2022/01/31 01:42:36;;;;;;;495.98;165.93;;;-1.20;99.90;;;;;;5115402;28;20481;-51
2022/01/31 01:45:03;;;;;;;368.38;120.65;;;-1.20;99.90;;;;;;5115654;28;20078;-51
2022/01/31 01:47:36;;;;;;;373.73;122.65;;;-1.20;99.90;;;;;;5115450;28;20080;-51
2022/01/31 01:50:04;;;;;;;391.38;129.13;;;-1.30;99.90;;;;;;5115346;28;20467;-51
2022/01/31 01:52:30;;;;;;;376.67;123.85;;;-1.30;99.90;;;;;;5115550;28;20019;-51
2022/01/31 01:54:57;;;;;;;346.83;117.07;;;-1.30;99.90;;;;;;5115400;28;20249;-51
2022/01/31 01:57:24;;;;;;;397.40;130.82;;;-1.40;99.90;;;;;;5115348;28;20034;-51
2022/01/31 01:59:55;;;;;;;477.25;150.80;;;-1.40;99.90;;;;;;5115248;28;20080;-51
2022/01/31 02:02:45;;;;;;;339.55;107.43;;;-1.40;99.90;;;;;;5116662;28;20059;-51
2022/01/31 02:05:14;;;;;;;441.30;134.43;;;-1.50;99.90;;;;;;5115098;28;20028;-51
2022/01/31 02:07:42;;;;;;;393.80;118.25;;;-1.50;99.90;;;;;;5115194;28;20028;-51
2022/01/31 02:10:11;;;;;;;366.77;119.22;;;-1.60;99.90;;;;;;5115226;28;20024;-51
2022/01/31 02:12:47;;;;;;;343.17;116.20;;;-1.50;99.90;;;;;;5114826;28;20024;-51
2022/01/31 02:15:40;;;;;;;233.20;87.63;;;-1.60;99.90;;;;;;5107494;28;20035;-51
2022/01/31 02:18:29;;;;;;;145.65;53.20;;;-1.60;99.90;;;;;;5114947;28;20038;-51
2022/01/31 02:20:59;;;;;;;167.77;63.97;;;-1.80;99.90;;;;;;5115035;28;20031;-51
2022/01/31 02:23:27;;;;;;;198.57;77.43;;;-1.80;99.90;;;;;;5114961;28;20035;-51
2022/01/31 02:26:11;;;;;;;219.90;86.57;;;-1.70;99.90;;;;;;5114771;28;20031;-51
2022/01/31 02:29:00;;;;;;;188.68;76.40;;;-1.70;99.90;;;;;;5110198;28;20035;-51
2022/01/31 02:31:26;;;;;;;202.65;77.03;;;-1.70;99.90;;;;;;5115909;27;20039;-51
2022/01/31 02:33:52;;;;;;;200.10;80.20;;;-1.80;99.90;;;;;;5115809;28;20104;-51
2022/01/31 02:36:18;;;;;;;197.52;81.50;;;-1.80;99.90;;;;;;5116071;28;20375;-51
2022/01/31 02:38:44;;;;;;;189.70;76.18;;;-1.90;99.90;;;;;;5114422;28;20028;-51
2022/01/31 02:41:10;;;;;;;189.38;76.53;;;-1.90;99.90;;;;;;5115151;28;20516;-51
2022/01/31 02:43:36;;;;;;;169.13;67.03;;;-2.00;99.90;;;;;;5115639;28;20111;-51
2022/01/31 02:46:07;;;;;;;;;;;-1.90;99.90;;;;;;5114795;28;20023;-51
2022/01/31 02:48:35;;;;;;;197.73;72.53;;;-2.00;99.90;;;;;;5114671;28;19908;-51
2022/01/31 02:51:08;;;;;;;210.93;80.03;;;-1.90;99.90;;;;;;5114331;28;20533;-51
2022/01/31 02:53:40;;;;;;;204.07;77.57;;;-1.90;99.90;;;;;;5114173;28;20062;-51
2022/01/31 02:56:07;;;;;;;151.13;56.65;;;-2.00;99.90;;;;;;5114299;28;20028;-51
2022/01/31 02:58:33;;;;;;;155.68;58.72;;;-2.00;99.90;;;;;;5114002;28;20041;-51
2022/01/31 03:00:59;;;;;;;184.68;68.20;;;-2.00;99.90;;;;;;5115675;27;20480;-51
2022/01/31 03:03:32;;;;;;;201.55;76.65;;;-2.10;99.90;;;;;;5114236;28;20028;-51
2022/01/31 03:05:59;;;;;;;187.63;75.80;;;-2.00;99.90;;;;;;5113841;28;20477;-51
2022/01/31 03:08:25;;;;;;;212.43;79.80;;;-1.90;99.90;;;;;;5114163;28;20435;-51
2022/01/31 03:10:54;;;;;;;205.20;77.88;;;-2.00;99.90;;;;;;5114068;28;20031;-51
2022/01/31 03:13:47;;;;;;;184.82;71.80;;;-2.00;99.90;;;;;;5113976;28;20031;-51
2022/01/31 03:16:13;;;;;;;196.05;79.25;;;-2.10;99.90;;;;;;5113945;28;20035;-51
2022/01/31 03:18:58;;;;;;;189.45;75.18;;;-2.20;99.90;;;;;;5115389;28;20488;-51
2022/01/31 03:21:24;;;;;;;175.02;67.93;;;-2.30;99.90;;;;;;5113850;28;20027;-51
2022/01/31 03:23:50;;;;;;;181.40;70.38;;;-2.30;99.90;;;;;;5113836;28;20028;-51
2022/01/31 03:26:18;;;;;;;184.15;69.80;;;-2.30;99.90;;;;;;5113789;28;20034;-51
2022/01/31 03:28:44;;;;;;;156.80;61.78;;;-2.20;99.90;;;;;;5115172;28;20055;-51
2022/01/31 03:31:10;;;;;;;159.23;57.85;;;-2.20;99.90;;;;;;5113517;28;20048;-51
2022/01/31 03:33:36;;;;;;;156.98;60.50;;;-2.10;99.90;;;;;;5113645;28;20035;-51
2022/01/31 03:36:04;;;;;;;175.27;65.22;;;-2.10;99.90;;;;;;5113698;28;20042;-51
2022/01/31 03:38:30;;;;;;;165.38;62.92;;;-1.90;99.90;;;;;;5113804;28;20473;-51
2022/01/31 03:40:56;;;;;;;169.18;61.03;;;-1.90;99.90;;;;;;5113657;28;20082;-51
2022/01/31 03:43:22;;;;;;;170.57;64.82;;;-1.90;99.90;;;;;;5114563;28;20077;-51
2022/01/31 03:45:49;;;;;;;155.05;58.83;;;-1.90;99.90;;;;;;5113701;28;20027;-51
2022/01/31 03:48:20;;;;;;;160.00;61.00;;;-2.00;99.90;;;;;;5113360;28;20076;-51
2022/01/31 03:50:47;;;;;;;153.18;60.58;;;-1.90;99.90;;;;;;5113455;28;20031;-51
2022/01/31 03:53:13;;;;;;;153.52;59.88;;;-1.80;99.90;;;;;;5150155;27;20046;-51
2022/01/31 03:55:39;;;;;;;157.05;62.83;;;-1.80;99.90;;;;;;5118951;28;20042;-51
2022/01/31 03:58:05;;;;;;;154.98;59.15;;;-1.70;99.90;;;;;;5117494;28;20469;-51
2022/01/31 04:00:54;;;;;;;201.90;77.95;;;-1.60;99.90;;;;;;5118774;28;20035;-51
2022/01/31 04:03:20;;;;;;;251.80;98.05;;;-1.50;99.90;;;;;;5119129;28;20047;-51
2022/01/31 04:05:46;;;;;;;342.65;128.55;;;-1.50;99.90;;;;;;5118905;28;20453;-51
2022/01/31 04:08:12;;;;;;;342.70;128.45;;;-1.40;99.90;;;;;;5118683;27;20036;-51
2022/01/31 04:10:38;;;;;;;286.52;111.40;;;-1.40;99.90;;;;;;5118844;27;20034;-51
2022/01/31 04:13:07;;;;;;;301.02;115.00;;;-1.30;99.90;;;;;;5118961;28;20028;-51
2022/01/31 04:15:35;;;;;;;296.95;114.95;;;-1.30;99.90;;;;;;5118556;28;20845;-51
2022/01/31 04:18:01;;;;;;;301.80;115.70;;;-1.30;99.90;;;;;;5118663;28;20032;-51
2022/01/31 04:20:27;;;;;;;328.02;123.03;;;-1.20;99.90;;;;;;5118658;28;20036;-51
2022/01/31 04:22:58;;;;;;;308.55;116.80;;;-1.20;99.90;;;;;;5118630;28;20040;-51
2022/01/31 04:25:45;;;;;;;301.73;111.45;;;-1.10;99.90;;;;;;5118796;28;20122;-51
2022/01/31 04:28:39;;;;;;;282.27;109.40;;;-1.00;99.90;;;;;;5118388;28;20040;-51
2022/01/31 04:33:37;;;;;;;225.90;89.97;;;-1.00;99.90;;;;;;5118251;28;20070;-51
2022/01/31 04:36:04;;;;;;;197.10;81.80;;;-1.00;99.90;;;;;;5118432;28;20032;-51
2022/01/31 04:38:29;;;;;;;207.18;85.30;;;-1.00;99.90;;;;;;5118167;28;20039;-51
2022/01/31 04:40:55;;;;;;;203.38;85.65;;;-1.00;99.90;;;;;;5118161;28;20092;-51
2022/01/31 04:43:21;;;;;;;191.25;80.45;;;-0.90;99.90;;;;;;5118017;28;20126;-51
2022/01/31 04:45:48;;;;;;;177.40;79.75;;;-0.90;99.90;;;;;;5117887;28;20050;-51
2022/01/31 04:48:16;;;;;;;192.95;85.90;;;-0.90;99.90;;;;;;5118350;28;20080;-51
2022/01/31 04:50:43;;;;;;;184.25;83.25;;;-1.00;99.90;;;;;;5117869;28;20038;-51
2022/01/31 04:53:09;;;;;;;170.40;77.28;;;-1.00;99.90;;;;;;5117825;28;20040;-51
2022/01/31 04:55:36;;;;;;;170.90;69.72;;;-0.90;99.90;;;;;;5117916;28;20080;-51
2022/01/31 04:58:03;;;;;;;164.60;67.68;;;-0.90;99.90;;;;;;5118231;28;20064;-51
2022/01/31 05:00:29;;;;;;;158.50;65.32;;;-0.80;99.90;;;;;;5117853;28;20040;-51
2022/01/31 05:02:55;;;;;;;156.32;63.97;;;-0.80;99.90;;;;;;5117255;28;20074;-51
2022/01/31 05:05:21;;;;;;;149.15;60.60;;;-0.90;99.90;;;;;;5117203;28;20476;-51
2022/01/31 05:07:48;;;;;;;151.38;61.97;;;-0.80;99.90;;;;;;5117870;28;20040;-51
2022/01/31 05:10:14;;;;;;;154.50;61.85;;;-0.90;99.90;;;;;;5117732;28;20036;-51
2022/01/31 05:12:41;;;;;;;165.75;67.15;;;-0.90;99.90;;;;;;5117708;28;20193;-51
2022/01/31 05:15:07;;;;;;;168.45;66.78;;;-0.90;99.90;;;;;;5117434;28;20075;-51
2022/01/31 05:17:33;;;;;;;173.77;69.88;;;-1.00;99.90;;;;;;5117320;28;20039;-51
2022/01/31 05:19:59;;;;;;;165.10;66.68;;;-1.00;99.90;;;;;;5117299;28;20032;-51
2022/01/31 05:22:25;;;;;;;144.13;60.10;;;-1.00;99.90;;;;;;5117405;28;20062;-51
2022/01/31 05:24:51;;;;;;;130.20;50.58;;;-0.90;99.90;;;;;;5117154;28;20055;-51
2022/01/31 05:27:16;;;;;;;110.85;47.63;;;-1.00;99.90;;;;;;5117357;28;20028;-51
2022/01/31 05:29:42;;;;;;;110.18;46.00;;;-1.10;99.90;;;;;;5116674;28;20032;-51
2022/01/31 05:32:08;;;;;;;131.82;57.95;;;-1.20;99.90;;;;;;5117592;28;20457;-51
2022/01/31 05:34:34;;;;;;;155.70;60.80;;;-1.40;99.90;;;;;;5117126;28;20076;-51
2022/01/31 05:37:00;;;;;;;166.32;79.90;;;-1.40;99.90;;;;;;5117312;28;20065;-51
2022/01/31 05:39:26;;;;;;;168.75;75.22;;;-1.40;99.90;;;;;;5117070;28;20114;-51
2022/01/31 05:41:53;;;;;;;171.70;73.43;;;-1.40;99.90;;;;;;5116759;28;20084;-51
2022/01/31 05:44:20;;;;;;;160.30;69.47;;;-1.50;99.90;;;;;;5116899;28;20031;-51
2022/01/31 05:46:46;;;;;;;155.68;68.65;;;-1.50;99.90;;;;;;5116777;28;20028;-51
2022/01/31 05:49:12;;;;;;;161.38;71.38;;;-1.60;99.90;;;;;;5116969;28;20087;-51
2022/01/31 05:51:53;;;;;;;158.95;67.00;;;-1.60;99.90;;;;;;5116701;28;20036;-51
2022/01/31 05:54:19;;;;;;;164.93;67.88;;;-1.60;99.90;;;;;;5117144;28;20081;-51
2022/01/31 05:56:45;;;;;;;154.73;65.70;;;-1.60;99.90;;;;;;5116676;28;20043;-51
2022/01/31 05:59:11;;;;;;;151.32;62.17;;;-1.50;99.90;;;;;;5116596;28;20473;-51
2022/01/31 06:01:39;;;;;;;147.20;64.70;;;-1.50;99.90;;;;;;5116451;28;20067;-51
2022/01/31 06:04:09;;;;;;;148.43;63.00;;;-1.50;99.90;;;;;;5116453;28;20031;-51
2022/01/31 06:06:35;;;;;;;152.57;65.70;;;-1.50;99.90;;;;;;5116328;28;20031;-51
2022/01/31 06:09:02;;;;;;;150.02;61.17;;;-1.50;99.90;;;;;;5116186;28;20464;-51
2022/01/31 06:11:31;;;;;;;140.65;58.47;;;-1.50;99.90;;;;;;5116448;27;20391;-51
2022/01/31 06:14:00;;;;;;;146.25;59.15;;;-1.50;99.90;;;;;;5116246;28;20035;-51
2022/01/31 06:16:27;;;;;;;139.80;58.63;;;-1.50;99.90;;;;;;5115461;28;20449;-51
2022/01/31 06:18:54;;;;;;;145.40;61.70;;;-1.50;99.90;;;;;;5116142;28;20024;-51
2022/01/31 06:21:20;;;;;;;152.80;60.80;;;-1.50;99.90;;;;;;5111098;28;20417;-51
2022/01/31 06:23:46;;;;;;;126.45;52.25;;;-1.50;99.90;;;;;;5105884;28;20027;-51
2022/01/31 06:26:12;;;;;;;122.85;50.63;;;-1.40;99.90;;;;;;5110625;28;20514;-51
2022/01/31 06:28:43;;;;;;;133.77;55.10;;;-1.40;99.90;;;;;;5107774;28;20039;-51
2022/01/31 06:31:35;;;;;;;137.30;58.38;;;-1.50;99.90;;;;;;5114215;28;20405;-51
2022/01/31 06:34:02;;;;;;;137.68;57.60;;;-1.50;99.90;;;;;;5115653;28;20594;-51
2022/01/31 06:36:29;;;;;;;151.02;62.55;;;-1.50;99.90;;;;;;5115798;28;20020;-51
2022/01/31 06:38:55;;;;;;;153.02;60.92;;;-1.50;99.90;;;;;;5115479;28;20118;-51
2022/01/31 06:41:23;;;;;;;157.23;61.38;;;-1.50;99.90;;;;;;5111841;28;20028;-51
2022/01/31 06:43:50;;;;;;;180.60;70.00;;;-1.40;99.90;;;;;;5112219;27;20035;-51
2022/01/31 06:46:17;;;;;;;197.73;76.20;;;-1.30;99.90;;;;;;5107059;28;20035;-51
2022/01/31 06:48:43;;;;;;;189.60;77.25;;;-1.10;99.90;;;;;;5107590;27;20046;-51
2022/01/31 06:51:09;;;;;;;186.05;73.47;;;-0.80;99.90;;;;;;5113344;28;20058;-51
2022/01/31 06:53:36;;;;;;;193.63;71.75;;;-0.50;99.90;;;;;;5106092;28;20434;-51
2022/01/31 06:56:03;;;;;;;245.00;90.63;;;-0.40;99.90;;;;;;5106391;28;20070;-51
2022/01/31 06:58:29;;;;;;;215.77;84.03;;;-0.20;99.90;;;;;;5112106;28;20157;-51
2022/01/31 07:00:56;;;;;;;205.48;86.47;;;-0.10;99.90;;;;;;5111392;28;20088;-51
2022/01/31 07:03:22;;;;;;;190.55;79.47;;;0.10;99.90;;;;;;5102160;28;20054;-51
2022/01/31 07:05:48;;;;;;;205.23;83.72;;;0.20;99.90;;;;;;5112902;28;20020;-52
2022/01/31 07:08:15;;;;;;;545.30;174.40;;;0.30;99.90;;;;;;5110634;28;20105;-51
2022/01/31 07:10:49;;;;;;;301.48;109.60;;;0.40;99.90;;;;;;5112434;28;20027;-51
2022/01/31 07:13:25;;;;;;;315.88;107.57;;;0.50;99.90;;;;;;5110639;28;20058;-51
2022/01/31 07:15:51;;;;;;;213.32;84.30;;;0.60;99.90;;;;;;5103162;28;20030;-51
2022/01/31 07:18:17;;;;;;;248.63;93.40;;;0.60;99.90;;;;;;5112421;28;20023;-51
2022/01/31 07:20:46;;;;;;;241.60;90.20;;;0.70;99.90;;;;;;5109805;28;20104;-51
2022/01/31 07:23:23;;;;;;;333.17;116.85;;;0.70;99.90;;;;;;5100854;28;20039;-51
2022/01/31 07:25:53;;;;;;;284.00;106.00;;;0.70;99.90;;;;;;5106735;28;20469;-51
2022/01/31 07:28:19;;;;;;;352.50;121.88;;;0.60;99.90;;;;;;5111121;28;20477;-51
2022/01/31 07:30:52;;;;;;;345.85;120.72;;;0.70;99.90;;;;;;5106367;28;20125;-52
2022/01/31 07:33:19;;;;;;;399.70;138.70;;;0.80;99.90;;;;;;5106926;28;20043;-51
2022/01/31 07:35:49;;;;;;;355.65;126.32;;;0.70;99.90;;;;;;5110876;28;20043;-51
2022/01/31 07:38:17;;;;;;;313.55;116.63;;;0.70;99.90;;;;;;5107801;28;20122;-51
2022/01/31 07:40:44;;;;;;;411.98;144.23;;;0.80;99.90;;;;;;5111505;28;20023;-52
2022/01/31 07:43:10;;;;;;;350.00;127.85;;;1.00;99.90;;;;;;5113189;28;20023;-52
2022/01/31 07:45:37;;;;;;;338.30;125.93;;;1.10;99.90;;;;;;5111746;28;20035;-51
2022/01/31 07:48:03;;;;;;;348.02;133.23;;;1.10;99.90;;;;;;5106812;28;20035;-51
2022/01/31 07:50:31;;;;;;;318.05;130.35;;;1.20;99.90;;;;;;5106851;28;20059;-51
2022/01/31 07:52:58;;;;;;;305.73;126.18;;;1.20;99.90;;;;;;5113367;28;20503;-51
2022/01/31 07:55:27;;;;;;;342.42;141.43;;;1.30;99.90;;;;;;5109339;28;20036;-51
2022/01/31 07:57:54;;;;;;;464.63;180.10;;;1.40;99.90;;;;;;5114124;28;20024;-51
2022/01/31 08:00:22;;;;;;;534.97;208.50;;;1.40;99.90;;;;;;5113185;28;20063;-51
2022/01/31 08:02:53;;;;;;;522.25;210.07;;;1.40;99.90;;;;;;5114185;28;20087;-51
2022/01/31 08:05:21;;;;;;;474.73;197.27;;;1.50;99.90;;;;;;5114230;28;20686;-51
2022/01/31 08:07:48;;;;;;;506.40;199.85;;;1.60;99.90;;;;;;5114242;28;20024;-51
2022/01/31 08:10:15;;;;;;;432.67;169.25;;;1.50;99.90;;;;;;5114259;28;20035;-51
2022/01/31 08:12:42;;;;;;;380.20;156.90;;;1.50;99.90;;;;;;5114253;28;20052;-51
2022/01/31 08:15:14;;;;;;;386.35;154.18;;;1.60;99.90;;;;;;5113915;28;20027;-51
2022/01/31 08:17:43;;;;;;;415.58;162.40;;;1.90;99.90;;;;;;5111171;28;20114;-51
2022/01/31 08:20:11;;;;;;;421.27;166.10;;;2.60;99.90;;;;;;5094164;28;20024;-51
2022/01/31 08:22:37;;;;;;;371.48;150.38;;;3.40;99.90;;;;;;5094078;28;20016;-51
2022/01/31 08:25:04;;;;;;;383.92;150.60;;;4.00;99.90;;;;;;5109291;28;20095;-52
2022/01/31 08:27:29;;;;;;;359.63;152.07;;;4.50;99.90;;;;;;5114506;28;20103;-52
2022/01/31 08:30:06;;;;;;;314.75;131.48;;;5.20;99.90;;;;;;5113099;28;20071;-52
2022/01/31 08:32:43;;;;;;;310.92;128.38;;;6.60;99.90;;;;;;5113579;28;20019;-52
2022/01/31 08:37:56;;;;;;;270.25;106.65;;;7.70;96.20;;;;;;5110110;28;20456;-52
2022/01/31 08:40:22;;;;;;;266.08;109.57;;;8.10;94.30;;;;;;5112603;28;20085;-52
2022/01/31 08:42:48;;;;;;;251.40;109.97;;;8.60;94.80;;;;;;5116164;28;20026;-52
2022/01/31 08:45:14;;;;;;;249.38;106.53;;;9.90;90.20;;;;;;5113909;28;20035;-52
2022/01/31 08:47:41;;;;;;;241.20;101.80;;;10.40;89.00;;;;;;5101890;28;20023;-52
2022/01/31 08:50:11;;;;;;;263.02;101.90;;;11.20;75.20;;;;;;5117596;28;20023;-52
2022/01/31 08:52:37;;;;;;;251.93;97.53;;;11.80;66.60;;;;;;5115047;28;20057;-52
2022/01/31 08:55:03;;;;;;;247.60;101.57;;;11.50;63.80;;;;;;5113539;28;20085;-52
2022/01/31 08:57:29;;;;;;;255.15;108.13;;;11.50;67.30;;;;;;5118453;28;20031;-52
2022/01/31 08:59:56;;;;;;;263.35;112.90;;;11.60;65.00;;;;;;5118490;28;20094;-53
2022/01/31 09:02:36;;;;;;;258.90;115.05;;;11.60;63.60;;;;;;5114520;28;20038;-52
2022/01/31 09:05:02;;;;;;;264.10;113.80;;;11.60;61.20;;;;;;5110747;27;20054;-52
2022/01/31 09:07:31;;;;;;;272.77;113.93;;;11.60;60.90;;;;;;5112206;28;20279;-52
2022/01/31 09:09:59;;;;;;;282.25;114.75;;;11.50;59.20;;;;;;5112522;28;20043;-53
2022/01/31 09:12:29;;;;;;;214.60;84.95;;;11.50;62.60;;;;;;5113346;28;20027;-52
2022/01/31 09:14:56;;;;;;;178.17;72.13;;;11.90;57.70;;;;;;5106227;28;20080;-52
2022/01/31 09:17:25;;;;;;;137.15;56.30;;;11.80;53.50;;;;;;5110351;28;20345;-52
2022/01/31 09:19:51;;;;;;;213.05;87.78;;;11.60;50.90;;;;;;5101133;28;20024;-52
2022/01/31 09:22:17;;;;;;;197.18;81.13;;;11.00;56.60;;;;;;5117553;28;20475;-52
2022/01/31 09:24:44;;;;;;;126.25;56.13;;;10.70;59.20;;;;;;5117664;28;20099;-52
2022/01/31 09:27:11;;;;;;;196.18;74.13;;;10.90;59.90;;;;;;5117534;28;20029;-53
2022/01/31 09:29:37;;;;;;;171.63;68.70;;;10.70;61.20;;;;;;5117346;28;20019;-53
2022/01/31 09:32:04;;;;;;;164.07;68.13;;;10.70;61.10;;;;;;5106063;28;20517;-52
2022/01/31 09:34:31;;;;;;;144.10;63.03;;;10.70;60.00;;;;;;5116527;28;20030;-53
2022/01/31 09:36:59;;;;;;;122.88;50.70;;;11.00;58.00;;;;;;5116641;28;20051;-52
2022/01/31 09:39:30;;;;;;;158.23;64.38;;;11.30;54.20;;;;;;5116255;28;20070;-52
2022/01/31 09:41:57;;;;;;;146.85;63.83;;;11.50;52.90;;;;;;5105697;28;20089;-53
2022/01/31 09:44:43;;;;;;;178.25;76.80;;;12.10;52.90;;;;;;5096776;28;20385;-53
2022/01/31 09:49:48;;;;;;;151.55;69.38;;;13.10;47.90;;;;;;5097092;28;20034;-53
2022/01/31 09:52:15;;;;;;;143.25;64.07;;;13.70;46.00;;;;;;5116235;28;20460;-53
2022/01/31 09:54:42;;;;;;;147.70;65.72;;;14.20;44.90;;;;;;5116528;28;20038;-53
2022/01/31 09:57:09;;;;;;;150.57;61.50;;;14.80;43.20;;;;;;5115435;28;20059;-53
2022/01/31 09:59:35;;;;;;;91.47;39.88;;;14.60;40.90;;;;;;5115999;28;20687;-53
2022/01/31 10:02:10;;;;;;;80.82;36.17;;;14.80;38.80;;;;;;5115164;28;20099;-53
2022/01/31 10:04:41;;;;;;;89.53;34.38;;;14.80;38.40;;;;;;5116177;28;20032;-53
2022/01/31 10:07:08;;;;;;;71.25;29.08;;;14.70;37.40;;;;;;5114170;28;20062;-53
2022/01/31 10:09:34;;;;;;;100.35;30.20;;;14.40;36.70;;;;;;5116165;28;20019;-53
2022/01/31 10:12:09;;;;;;;60.45;23.55;;;13.90;36.20;;;;;;5117041;28;20027;-53
2022/01/31 10:17:33;;;;;;;47.17;12.85;;;13.80;36.30;;;;;;5116651;28;20030;-53
2022/01/31 10:20:06;;;;;;;39.05;13.18;;;13.70;35.80;;;;;;5116276;28;20019;-53
2022/01/31 10:22:35;;;;;;;57.78;18.67;;;13.50;36.20;;;;;;5116752;28;20047;-53
2022/01/31 10:25:06;;;;;;;56.47;25.10;;;13.80;37.00;;;;;;5116720;28;20031;-53
2022/01/31 10:27:36;;;;;;;90.22;32.30;;;13.70;36.10;;;;;;5115688;28;20050;-53
2022/01/31 10:30:14;;;;;;;72.72;26.63;;;13.80;37.00;;;;;;5115542;28;20043;-53
2022/01/31 10:32:43;;;;;;;73.72;30.58;;;13.70;37.10;;;;;;5115558;28;20170;-53
2022/01/31 10:35:19;;;;;;;61.33;26.45;;;13.60;36.70;;;;;;5115789;28;20541;-53
2022/01/31 10:37:47;;;;;;;79.60;32.72;;;13.60;37.50;;;;;;5115577;28;20092;-53
2022/01/31 10:51:59;;;;;;;74.05;24.63;;;12.60;38.40;;;;;;5073273;28;20132;-53
2022/01/31 10:57:15;;;;;;;57.85;23.63;;;12.40;39.30;;;;;;5073262;28;20099;-53
2022/01/31 10:59:44;;;;;;;61.35;23.90;;;12.30;39.60;;;;;;5072373;28;20099;-53
2022/01/31 11:02:19;;;;;;;61.78;25.85;;;12.30;40.60;;;;;;5071413;28;20056;-53
2022/01/31 11:04:46;;;;;;;61.67;24.75;;;12.20;40.40;;;;;;5072293;28;20032;-53
2022/01/31 11:07:17;;;;;;;66.45;27.83;;;12.00;40.60;;;;;;5071152;28;20040;-53
2022/01/31 11:09:51;;;;;;;83.45;30.08;;;11.90;40.90;;;;;;5072671;28;20024;-53
2022/01/31 11:12:27;;;;;;;83.90;25.80;;;11.80;41.40;;;;;;5072648;28;20044;-53
2022/01/31 11:14:57;;;;;;;46.45;19.08;;;11.70;41.20;;;;;;5102371;28;20476;-53
2022/01/31 11:17:24;;;;;;;42.13;18.38;;;11.40;41.00;;;;;;5115790;28;20039;-53
2022/01/31 11:19:56;;;;;;;54.88;19.30;;;11.30;41.00;;;;;;5115134;28;20020;-53
2022/01/31 11:22:30;;;;;;;45.38;20.00;;;11.30;42.80;;;;;;5115426;28;20036;-51
2022/01/31 11:25:06;;;;;;;53.85;20.67;;;11.30;43.10;;;;;;5095299;28;20044;-53
2022/01/31 11:27:36;;;;;;;55.63;21.23;;;11.30;43.20;;;;;;5095380;28;20103;-53
2022/01/31 11:30:04;;;;;;;54.67;22.10;;;11.30;43.90;;;;;;5094692;28;20060;-53
2022/01/31 11:32:33;;;;;;;59.28;22.40;;;11.30;43.50;;;;;;5094075;28;20029;-53
2022/01/31 11:35:00;;;;;;;58.97;21.52;;;11.20;42.60;;;;;;5094574;28;20051;-53
2022/01/31 11:37:26;;;;;;;62.20;19.77;;;11.10;43.40;;;;;;5094344;28;20024;-53
2022/01/31 11:40:05;;;;;;;56.92;22.48;;;11.10;44.60;;;;;;5096824;28;20420;-53
2022/01/31 11:42:32;;;;;;;118.22;24.02;;;10.80;43.60;;;;;;5100377;28;20030;-53
2022/01/31 11:45:07;;;;;;;58.50;22.50;;;10.70;44.70;;;;;;5103789;28;20076;-53
2022/01/31 11:47:36;;;;;;;79.05;23.80;;;10.70;46.00;;;;;;5112306;28;20024;-53
2022/01/31 11:50:12;;;;;;;41.58;12.63;;;10.80;47.60;;;;;;5115266;28;20035;-53
2022/01/31 11:52:45;;;;;;;57.22;14.05;;;10.70;44.30;;;;;;5114172;28;20036;-53
2022/01/31 11:55:14;;;;;;;81.28;19.48;;;10.60;43.20;;;;;;5115232;28;20524;-53
2022/01/31 11:57:50;;;;;;;72.63;21.13;;;10.70;44.00;;;;;;5113436;28;20023;-53
2022/01/31 12:00:18;;;;;;;82.15;22.92;;;10.60;45.00;;;;;;5114329;28;20126;-53
2022/01/31 12:02:49;;;;;;;68.93;24.58;;;10.60;47.10;;;;;;5112593;28;20063;-53
2022/01/31 12:05:25;;;;;;;82.95;26.70;;;10.50;47.00;;;;;;5103200;28;20063;-52
2022/01/31 12:08:01;;;;;;;85.15;26.83;;;10.40;46.70;;;;;;5094939;28;20024;-52
2022/01/31 12:10:33;;;;;;;95.35;30.08;;;10.40;47.70;;;;;;5095840;28;20375;-53
2022/01/31 12:16:11;;;;;;;103.45;32.58;;;10.20;46.30;;;;;;5118896;27;20031;-53
2022/01/31 12:18:59;;;;;;;157.55;30.90;;;10.00;47.00;;;;;;5108938;28;20373;-53
2022/01/31 12:24:34;;;;;;;35.85;11.70;;;9.90;47.00;;;;;;5102533;28;20077;-53
2022/01/31 12:27:20;;;;;;;22.42;8.65;;;9.90;45.50;;;;;;5116385;28;20030;-53
2022/01/31 12:29:50;;;;;;;15.77;5.38;;;9.80;45.30;;;;;;5116122;28;20415;-53
2022/01/31 12:32:22;;;;;;;16.17;5.45;;;9.70;45.40;;;;;;5118507;28;20083;-53
2022/01/31 12:34:50;;;;;;;28.02;6.70;;;9.80;45.80;;;;;;5114705;28;20031;-53
2022/01/31 12:37:35;;;;;;;41.35;7.55;;;9.70;46.60;;;;;;5099957;28;20045;-53
2022/01/31 12:40:13;;;;;;;29.25;6.50;;;9.80;47.00;;;;;;5108175;28;20023;-53
2022/01/31 12:45:59;;;;;;;35.60;7.88;;;9.80;47.00;;;;;;5097271;28;20020;-53
2022/01/31 12:48:26;;;;;;;41.20;8.90;;;9.80;49.40;;;;;;5105914;28;20393;-53
2022/01/31 12:50:51;;;;;;;24.90;7.95;;;9.90;48.60;;;;;;5113128;28;20036;-52
2022/01/31 12:53:58;;;;;;;56.33;10.93;;;9.90;47.60;;;;;;5117036;28;20084;-53
2022/01/31 12:56:35;;;;;;;;;;;9.80;47.80;;;;;;5116081;28;20039;-53
2022/01/31 12:59:17;;;;;;;66.90;15.18;;;9.70;50.00;;;;;;5117604;27;19951;-52
2022/01/31 13:01:49;;;;;;;83.78;21.20;;;9.80;52.60;;;;;;5117402;28;20385;-53
2022/01/31 13:04:27;;;;;;;78.18;21.45;;;9.80;51.40;;;;;;5117689;28;20028;-53
2022/01/31 13:07:07;;;;;;;52.47;17.50;;;9.70;52.10;;;;;;5111459;28;20032;-52
2022/01/31 13:09:50;;;;;;;53.70;19.77;;;9.70;52.10;;;;;;5099653;28;20062;-53